Time;durP1;ratioP1;P1;durP2;ratioP2;P2;SDS_P1;SDS_P2;PMS_P1;PMS_P2;Temp;Humidity;BMP_temperature;BMP_pressure;BME280_temperature;BME280_humidity;BME280_pressure;Samples;Min_cycle;Max_cycle;Signal;HPM_P1;HPM_P2
2021/12/05 00:22:03;;;;;;;41.67;17.67;;;-1.10;99.90;;;;;;4275600;33;20205;-66
2021/12/05 00:24:40;;;;;;;38.83;17.33;;;-1.10;99.90;;;;;;4275352;33;20174;-67
2021/12/05 00:27:18;;;;;;;40.27;17.97;;;-1.10;99.90;;;;;;4275325;33;20237;-66
2021/12/05 00:29:59;;;;;;;39.07;18.90;;;-1.20;99.90;;;;;;4275288;33;20185;-67
2021/12/05 01:01:04;;;;;;;40.13;17.87;;;-1.10;99.90;;;;;;4233942;33;20249;-66
2021/12/05 01:03:55;;;;;;;37.63;17.30;;;-1.10;99.90;;;;;;4246130;33;20510;-67
2021/12/05 01:15:19;;;;;;;36.30;17.83;;;-1.10;99.90;;;;;;4248810;33;20222;-67
2021/12/05 01:17:26;;;;;;;37.70;16.90;;;-1.10;99.90;;;;;;4244193;33;20178;-66
2021/12/05 01:19:57;;;;;;;37.93;17.63;;;-1.00;99.90;;;;;;4248577;33;20178;-67
2021/12/05 01:22:27;;;;;;;34.63;17.00;;;-1.00;99.90;;;;;;4249764;33;20244;-66
2021/12/05 01:25:17;;;;;;;35.87;17.67;;;-1.10;99.90;;;;;;4263173;33;20224;-66
2021/12/05 01:28:02;;;;;;;39.97;17.67;;;-1.10;99.90;;;;;;4256666;33;20213;-66
2021/12/05 01:36:18;;;;;;;39.97;17.83;;;-1.20;99.90;;;;;;4250964;33;20181;-66
2021/12/05 01:47:39;;;;;;;36.70;17.20;;;-1.20;99.90;;;;;;4236047;33;20238;-66
2021/12/05 01:59:12;;;;;;;38.67;17.47;;;-1.10;99.90;;;;;;4206106;34;20249;-66
2021/12/05 02:02:17;;;;;;;37.23;17.93;;;-1.10;99.90;;;;;;4205389;34;20659;-66
2021/12/05 02:33:26;;;;;;;43.47;18.33;;;-0.80;99.90;;;;;;4278383;33;20170;-66
2021/12/05 02:42:08;;;;;;;39.37;18.07;;;-0.70;99.90;;;;;;4221238;34;20175;-66
2021/12/05 02:44:41;;;;;;;39.37;18.53;;;-0.80;99.90;;;;;;4233752;34;20239;-66
2021/12/05 02:47:21;;;;;;;40.83;18.43;;;-0.80;99.90;;;;;;4222259;34;20186;-66
2021/12/05 02:49:56;;;;;;;41.70;18.73;;;-0.70;99.90;;;;;;4222443;34;20206;-66
2021/12/05 02:52:30;;;;;;;38.07;17.77;;;-0.80;99.90;;;;;;4221898;34;20201;-66
2021/12/05 02:55:27;;;;;;;39.17;17.53;;;-0.70;99.90;;;;;;4233723;34;20210;-66
2021/12/05 02:58:15;;;;;;;41.57;18.53;;;-0.70;99.90;;;;;;4222450;34;20325;-66
2021/12/05 03:03:22;;;;;;;44.10;19.63;;;-0.70;99.90;;;;;;4221252;34;20178;-66
2021/12/05 03:05:56;;;;;;;40.07;18.63;;;-0.70;99.90;;;;;;4221459;34;20171;-66
2021/12/05 03:08:30;;;;;;;44.03;18.60;;;-0.70;99.90;;;;;;4221703;34;20252;-66
2021/12/05 03:11:00;;;;;;;43.93;18.43;;;-0.70;99.90;;;;;;4210066;34;20190;-66
2021/12/05 03:16:53;;;;;;;40.30;18.03;;;-0.90;99.90;;;;;;4276436;33;20208;-66
2021/12/05 03:19:22;;;;;;;41.90;19.17;;;-1.00;99.90;;;;;;4277005;33;20171;-66
2021/12/05 03:21:54;;;;;;;41.00;19.17;;;-1.00;99.90;;;;;;4276454;33;20170;-66
2021/12/05 03:24:29;;;;;;;41.37;19.47;;;-1.10;99.90;;;;;;4277713;33;20174;-66
2021/12/05 03:27:00;;;;;;;38.70;18.57;;;-1.10;99.90;;;;;;4275637;33;20257;-66
2021/12/05 03:29:28;;;;;;;41.03;18.77;;;-1.10;99.90;;;;;;4276551;33;20230;-66
2021/12/05 03:32:09;;;;;;;43.53;18.20;;;-1.20;99.90;;;;;;4276078;33;20575;-66
2021/12/05 03:34:40;;;;;;;39.50;17.73;;;-1.30;99.90;;;;;;4278146;33;20196;-66
2021/12/05 03:37:10;;;;;;;37.63;18.37;;;-1.30;99.90;;;;;;4276431;33;20181;-66
2021/12/05 03:39:41;;;;;;;38.60;18.30;;;-1.40;99.90;;;;;;4277251;33;20196;-66
2021/12/05 03:42:12;;;;;;;39.90;19.00;;;-1.40;99.90;;;;;;4275631;33;20197;-66
2021/12/05 03:44:45;;;;;;;39.27;18.10;;;-1.50;99.90;;;;;;4275972;33;20193;-66
2021/12/05 03:47:20;;;;;;;40.23;18.17;;;-1.50;99.90;;;;;;4275868;33;20217;-66
2021/12/05 03:49:53;;;;;;;39.67;18.03;;;-1.50;99.90;;;;;;4288206;33;20177;-66
2021/12/05 03:52:45;;;;;;;39.87;19.03;;;-1.50;99.90;;;;;;4276177;33;20228;-66
2021/12/05 03:55:24;;;;;;;37.33;17.70;;;-1.60;99.90;;;;;;4277044;33;20158;-66
2021/12/05 03:57:56;;;;;;;37.53;17.83;;;-1.50;99.90;;;;;;4275369;33;20200;-66
2021/12/05 04:00:49;;;;;;;36.70;17.77;;;-1.60;99.90;;;;;;4276210;33;20173;-66
2021/12/05 04:03:28;;;;;;;35.73;17.77;;;-1.50;99.90;;;;;;4277103;33;20209;-67
2021/12/05 04:06:07;;;;;;;39.90;18.13;;;-1.40;99.90;;;;;;4275468;33;20178;-66
2021/12/05 04:08:41;;;;;;;40.23;18.13;;;-1.40;99.90;;;;;;4276338;33;20251;-66
2021/12/05 04:11:36;;;;;;;40.00;16.73;;;-1.40;99.90;;;;;;4274834;33;20248;-66
2021/12/05 04:14:07;;;;;;;38.83;17.73;;;-1.40;99.90;;;;;;4275420;33;20237;-66
2021/12/05 04:16:41;;;;;;;34.93;17.80;;;-1.50;99.90;;;;;;4278020;33;20409;-66
2021/12/05 04:19:15;;;;;;;37.00;17.00;;;-1.50;99.90;;;;;;4276125;33;20186;-66
2021/12/05 04:21:43;;;;;;;35.50;17.00;;;-1.60;99.90;;;;;;4287491;33;20220;-66
2021/12/05 04:24:12;;;;;;;35.53;17.67;;;-1.60;99.90;;;;;;4276665;33;20478;-66
2021/12/05 04:26:43;;;;;;;36.77;17.60;;;-1.50;99.90;;;;;;4278199;33;20152;-66
2021/12/05 04:29:16;;;;;;;34.67;17.00;;;-1.60;99.90;;;;;;4276835;33;20192;-66
2021/12/05 04:31:47;;;;;;;34.77;17.47;;;-1.60;99.90;;;;;;4275836;33;20201;-66
2021/12/05 04:34:26;;;;;;;39.17;18.20;;;-1.60;99.90;;;;;;4277249;33;20165;-66
2021/12/05 04:36:57;;;;;;;36.53;17.57;;;-1.70;99.90;;;;;;4275534;33;20200;-66
2021/12/05 04:39:31;;;;;;;36.70;17.07;;;-1.70;99.90;;;;;;4275952;33;20255;-66
2021/12/05 04:42:28;;;;;;;35.23;17.33;;;-1.70;99.90;;;;;;4272377;33;20181;-66
2021/12/05 04:45:26;;;;;;;39.47;17.17;;;-1.70;99.90;;;;;;4276512;33;20192;-66
2021/12/05 04:48:08;;;;;;;38.37;17.20;;;-1.60;99.90;;;;;;4274640;33;20197;-66
2021/12/05 04:50:46;;;;;;;39.53;18.70;;;-1.60;99.90;;;;;;4276431;33;20154;-66
2021/12/05 04:53:27;;;;;;;39.10;17.93;;;-1.70;99.90;;;;;;4275090;33;20225;-66
2021/12/05 04:56:10;;;;;;;39.43;18.13;;;-1.70;99.90;;;;;;4275581;33;20209;-66
2021/12/05 04:58:41;;;;;;;40.20;18.30;;;-1.70;99.90;;;;;;4276108;33;20177;-66
2021/12/05 05:01:16;;;;;;;35.47;18.00;;;-1.70;99.90;;;;;;4277991;33;20178;-66
2021/12/05 05:03:47;;;;;;;35.53;16.93;;;-1.70;99.90;;;;;;4276851;33;20151;-66
2021/12/05 05:06:23;;;;;;;37.63;18.10;;;-1.70;99.90;;;;;;4276382;33;20189;-66
2021/12/05 05:09:07;;;;;;;39.10;17.03;;;-1.70;99.90;;;;;;4276440;33;20263;-67
2021/12/05 05:12:03;;;;;;;34.63;16.70;;;-1.70;99.90;;;;;;4276155;33;20216;-66
2021/12/05 05:14:50;;;;;;;33.30;16.77;;;-1.70;99.90;;;;;;4274714;33;20203;-66
2021/12/05 05:17:26;;;;;;;36.33;16.80;;;-1.60;99.90;;;;;;4273443;33;20174;-66
2021/12/05 05:20:32;;;;;;;36.43;17.33;;;-1.70;99.90;;;;;;4276288;33;20162;-66
2021/12/05 05:41:43;;;;;;;37.17;16.97;;;-1.90;99.90;;;;;;4206860;34;20188;-66
2021/12/05 05:44:01;;;;;;;37.83;17.67;;;-1.90;99.90;;;;;;4216844;34;20182;-66
2021/12/05 05:49:32;;;;;;;39.67;18.00;;;-1.90;99.90;;;;;;4205937;34;20182;-66
2021/12/05 05:52:20;;;;;;;34.90;17.13;;;-1.90;99.90;;;;;;4207082;34;20188;-66
2021/12/05 05:54:59;;;;;;;36.53;17.23;;;-1.90;99.90;;;;;;4220353;34;20148;-66
2021/12/05 06:00:42;;;;;;;37.00;17.67;;;-1.90;99.90;;;;;;4211961;34;20185;-66
2021/12/05 06:04:13;;;;;;;34.27;16.33;;;-1.90;99.90;;;;;;4179342;34;20200;-68
2021/12/05 06:07:01;;;;;;;38.50;18.07;;;-1.90;99.90;;;;;;4178277;34;20298;-68
2021/12/05 06:09:43;;;;;;;36.83;17.57;;;-1.90;99.90;;;;;;4238616;33;20274;-68
2021/12/05 06:12:13;;;;;;;36.30;17.87;;;-1.90;99.90;;;;;;4235417;33;20209;-68
2021/12/05 06:14:44;;;;;;;39.27;17.67;;;-1.90;99.90;;;;;;4235668;33;20248;-68
2021/12/05 06:17:19;;;;;;;38.20;17.97;;;-1.90;99.90;;;;;;4248358;33;20150;-68
2021/12/05 06:19:49;;;;;;;36.80;17.47;;;-1.90;99.90;;;;;;4236307;33;20194;-68
2021/12/05 06:22:31;;;;;;;34.77;17.10;;;-1.90;99.90;;;;;;4236391;33;20171;-69
2021/12/05 06:28:56;;;;;;;38.20;17.43;;;-1.80;99.90;;;;;;4192230;34;20246;-68
2021/12/05 06:38:07;;;;;;;37.80;17.37;;;-1.80;99.90;;;;;;4205428;34;20222;-68
2021/12/05 06:49:25;;;;;;;39.73;18.27;;;-1.70;99.90;;;;;;4197829;34;20565;-68
2021/12/05 06:51:56;;;;;;;38.13;18.10;;;-1.60;99.90;;;;;;4205011;34;20173;-68
2021/12/05 06:54:42;;;;;;;37.53;18.17;;;-1.60;99.90;;;;;;4205083;34;20253;-68
2021/12/05 06:57:22;;;;;;;36.73;17.40;;;-1.60;99.90;;;;;;4205329;34;20214;-68
2021/12/05 07:00:08;;;;;;;39.53;17.87;;;-1.60;99.90;;;;;;4205108;34;20199;-68
2021/12/05 07:02:47;;;;;;;35.60;17.23;;;-1.50;99.90;;;;;;4204925;34;20180;-68
2021/12/05 07:05:50;;;;;;;41.30;18.13;;;-1.50;99.90;;;;;;4223108;33;20151;-67
2021/12/05 07:08:31;;;;;;;37.37;17.67;;;-1.50;99.90;;;;;;4222345;33;20271;-68
2021/12/05 07:11:26;;;;;;;38.67;17.93;;;-1.40;99.90;;;;;;4258867;33;20230;-68
2021/12/05 07:14:34;;;;;;;37.07;17.97;;;-1.40;99.90;;;;;;4263053;33;20170;-68
2021/12/05 07:26:32;;;;;;;37.23;17.53;;;-1.10;99.90;;;;;;4234809;33;20182;-68
2021/12/05 07:44:21;;;;;;;34.20;17.47;;;-0.70;99.90;;;;;;4221325;33;20191;-68
2021/12/05 07:47:23;;;;;;;38.90;17.97;;;-0.60;99.90;;;;;;4244167;33;20202;-68
2021/12/05 07:53:04;;;;;;;38.50;17.80;;;-0.50;99.90;;;;;;4234814;33;20233;-68
2021/12/05 07:55:43;;;;;;;39.20;17.83;;;-0.40;99.90;;;;;;4234717;33;20202;-68
2021/12/05 08:15:29;;;;;;;39.03;18.33;;;0.00;99.90;;;;;;4261474;33;20170;-68
2021/12/05 08:18:20;;;;;;;38.97;18.67;;;0.00;99.90;;;;;;4262749;33;20164;-69
2021/12/05 08:21:45;;;;;;;37.53;18.30;;;0.00;99.90;;;;;;4217921;34;20223;-68
2021/12/05 08:24:33;;;;;;;32.83;17.77;;;0.00;99.90;;;;;;4248190;33;20200;-68
2021/12/05 08:27:06;;;;;;;38.03;18.73;;;0.10;99.90;;;;;;4262637;33;20201;-68
2021/12/05 08:29:45;;;;;;;40.77;19.07;;;0.10;99.90;;;;;;4262183;33;20174;-68
2021/12/05 08:32:53;;;;;;;37.33;18.60;;;0.10;99.90;;;;;;4268423;33;20245;-68
2021/12/05 09:22:30;;;;;;;41.43;20.23;;;1.00;99.90;;;;;;4285208;33;20216;-68
2021/12/05 09:51:22;;;;;;;40.57;18.80;;;1.80;99.90;;;;;;4179147;34;20188;-67
2021/12/05 10:08:02;;;;;;;34.53;17.30;;;2.20;99.90;;;;;;4178981;34;20224;-67
2021/12/05 10:10:54;;;;;;;37.07;18.30;;;2.20;99.90;;;;;;4253326;33;20232;-68
2021/12/05 10:13:33;;;;;;;36.90;18.17;;;2.20;99.90;;;;;;4292904;33;20158;-68
2021/12/05 10:16:50;;;;;;;40.07;18.33;;;2.20;99.90;;;;;;4291446;33;20508;-68
2021/12/05 10:19:40;;;;;;;35.70;17.97;;;2.10;99.90;;;;;;4289787;33;20182;-68
2021/12/05 10:38:52;;;;;;;32.60;16.70;;;1.90;99.90;;;;;;4282216;33;20198;-68
2021/12/05 10:44:14;;;;;;;34.90;17.03;;;1.90;99.90;;;;;;4290777;33;20197;-68
2021/12/05 10:46:49;;;;;;;37.00;17.80;;;1.90;99.90;;;;;;4292514;33;20162;-68
2021/12/05 10:49:22;;;;;;;32.67;16.57;;;1.90;99.90;;;;;;4303049;33;20223;-68
2021/12/05 10:51:57;;;;;;;36.67;17.20;;;1.90;99.90;;;;;;4290418;33;20193;-67
2021/12/05 10:54:28;;;;;;;34.33;16.53;;;1.90;99.90;;;;;;4304188;33;20205;-68
2021/12/05 10:57:01;;;;;;;33.97;16.10;;;1.90;99.90;;;;;;4290903;33;20207;-68
2021/12/05 10:59:39;;;;;;;34.93;17.00;;;1.90;99.90;;;;;;4303006;33;20183;-68
2021/12/05 11:02:20;;;;;;;32.50;16.07;;;1.80;99.90;;;;;;4291104;33;20268;-67
2021/12/05 11:04:51;;;;;;;33.97;16.37;;;1.80;99.90;;;;;;4290156;33;20219;-68
2021/12/05 11:07:24;;;;;;;34.70;17.00;;;1.90;99.90;;;;;;4291820;33;20142;-67
2021/12/05 11:09:57;;;;;;;32.80;16.63;;;1.80;99.90;;;;;;4291966;33;20208;-68
2021/12/05 11:12:31;;;;;;;34.00;16.83;;;1.70;99.90;;;;;;4303307;33;20186;-67
2021/12/05 11:15:09;;;;;;;32.93;16.13;;;1.70;99.90;;;;;;4292266;33;20164;-68
2021/12/05 11:17:41;;;;;;;34.10;16.90;;;1.70;99.90;;;;;;4302466;33;20286;-68
2021/12/05 11:20:21;;;;;;;31.67;16.03;;;1.70;99.90;;;;;;4290859;33;20232;-68
2021/12/05 11:22:50;;;;;;;30.73;15.97;;;1.70;99.90;;;;;;4303384;33;20241;-68
2021/12/05 11:25:21;;;;;;;29.17;15.57;;;1.70;99.90;;;;;;4290297;33;20185;-68
2021/12/05 11:28:08;;;;;;;32.07;15.73;;;1.70;99.90;;;;;;4289745;33;20267;-67
2021/12/05 11:31:23;;;;;;;31.93;16.27;;;1.70;99.90;;;;;;4245889;33;20167;-69
2021/12/05 11:33:54;;;;;;;36.83;16.97;;;1.70;99.90;;;;;;4281700;33;20230;-67
2021/12/05 11:36:27;;;;;;;34.00;16.40;;;1.70;99.90;;;;;;4290852;33;20219;-68
2021/12/05 11:38:56;;;;;;;32.77;16.37;;;1.60;99.90;;;;;;4290279;33;20149;-68
2021/12/05 11:41:27;;;;;;;32.57;15.70;;;1.60;99.90;;;;;;4290273;33;20204;-68
2021/12/05 11:44:00;;;;;;;32.07;15.37;;;1.60;99.90;;;;;;4291292;33;20165;-68
2021/12/05 11:46:36;;;;;;;31.60;15.13;;;1.60;99.90;;;;;;4301725;33;20170;-68
2021/12/05 11:49:12;;;;;;;31.83;15.73;;;1.50;99.90;;;;;;4289469;33;20244;-68
2021/12/05 11:51:51;;;;;;;32.07;16.50;;;1.60;99.90;;;;;;4298620;33;20260;-68
2021/12/05 11:54:33;;;;;;;31.83;15.80;;;1.50;99.90;;;;;;4272852;33;20251;-68
2021/12/05 11:57:25;;;;;;;36.37;15.97;;;1.50;99.90;;;;;;4275626;33;20291;-68
2021/12/05 12:00:04;;;;;;;31.30;15.97;;;1.50;99.90;;;;;;4276618;33;20195;-68
2021/12/05 12:02:35;;;;;;;34.33;16.17;;;1.50;99.90;;;;;;4275384;33;20213;-68
2021/12/05 12:05:24;;;;;;;34.43;16.30;;;1.40;99.90;;;;;;4286613;33;20235;-68
2021/12/05 12:08:02;;;;;;;34.57;16.43;;;1.40;99.90;;;;;;4288229;33;20268;-68
2021/12/05 12:10:47;;;;;;;33.93;15.53;;;1.30;99.90;;;;;;4287224;33;20177;-68
2021/12/05 12:13:25;;;;;;;33.37;17.17;;;1.10;99.90;;;;;;4274899;33;20510;-68
2021/12/05 12:16:02;;;;;;;34.57;16.37;;;1.00;99.90;;;;;;4275812;33;20177;-68
2021/12/05 12:18:34;;;;;;;32.23;16.23;;;0.90;99.90;;;;;;4276137;33;20212;-68
2021/12/05 12:21:21;;;;;;;34.77;15.77;;;0.80;99.90;;;;;;4275074;33;20182;-68
2021/12/05 12:23:54;;;;;;;30.67;16.57;;;0.90;99.90;;;;;;4286055;33;20202;-69
2021/12/05 12:26:26;;;;;;;31.93;16.27;;;0.80;99.90;;;;;;4276294;33;20169;-69
2021/12/05 12:28:57;;;;;;;36.50;16.97;;;0.90;99.90;;;;;;4286671;33;20276;-68
2021/12/05 12:31:35;;;;;;;35.10;17.03;;;0.90;99.90;;;;;;4276208;33;20449;-68
2021/12/05 12:34:17;;;;;;;32.03;16.63;;;0.90;99.90;;;;;;4275649;33;20205;-68
2021/12/05 12:37:10;;;;;;;31.90;16.07;;;0.90;99.90;;;;;;4275289;33;20276;-68
2021/12/05 12:39:48;;;;;;;33.60;15.83;;;0.90;99.90;;;;;;4276653;33;20184;-68
2021/12/05 12:42:21;;;;;;;36.43;16.20;;;0.90;99.90;;;;;;4276446;33;20166;-68
2021/12/05 12:45:03;;;;;;;34.43;16.77;;;0.90;99.90;;;;;;4286328;33;20458;-68
2021/12/05 12:47:54;;;;;;;33.87;16.50;;;0.90;99.90;;;;;;4286787;33;20178;-67
2021/12/05 12:50:29;;;;;;;35.60;16.37;;;0.80;99.90;;;;;;4275856;33;20190;-68
2021/12/05 12:53:12;;;;;;;34.33;16.97;;;0.80;99.90;;;;;;4277048;33;20176;-68
2021/12/05 12:55:49;;;;;;;30.90;16.07;;;0.80;99.90;;;;;;4286278;33;20182;-68
2021/12/05 12:58:33;;;;;;;32.80;16.47;;;0.80;99.90;;;;;;4286347;33;20182;-68
2021/12/05 13:01:17;;;;;;;34.50;16.07;;;0.80;99.90;;;;;;4286950;33;20286;-68
2021/12/05 13:10:05;;;;;;;33.30;16.23;;;0.80;99.90;;;;;;4290627;33;20174;-68
2021/12/05 13:12:49;;;;;;;34.97;16.97;;;0.80;99.90;;;;;;4290812;33;20230;-68
2021/12/05 13:15:20;;;;;;;34.07;16.70;;;0.80;99.90;;;;;;4280529;33;20494;-68
2021/12/05 13:18:04;;;;;;;33.37;16.40;;;0.80;99.90;;;;;;4278548;33;20186;-68
2021/12/05 13:20:41;;;;;;;32.00;16.20;;;0.80;99.90;;;;;;4290315;33;20429;-68
2021/12/05 13:23:11;;;;;;;36.40;16.70;;;0.70;99.90;;;;;;4290098;33;20216;-68
2021/12/05 13:26:01;;;;;;;37.30;16.70;;;0.70;99.90;;;;;;4288266;33;20439;-67
2021/12/05 13:28:51;;;;;;;35.00;17.00;;;0.80;99.90;;;;;;4289724;33;20182;-70
2021/12/05 13:31:32;;;;;;;39.00;17.60;;;0.80;99.90;;;;;;4288859;33;20208;-70
2021/12/05 13:34:49;;;;;;;31.90;16.80;;;0.80;99.90;;;;;;4289426;33;20425;-69
2021/12/05 13:37:35;;;;;;;38.60;17.10;;;0.80;99.90;;;;;;4288830;33;20177;-70
2021/12/05 13:40:19;;;;;;;36.40;17.63;;;0.80;99.90;;;;;;4290385;33;20229;-69
2021/12/05 13:42:51;;;;;;;37.83;17.60;;;0.80;99.90;;;;;;4288592;33;20214;-69
2021/12/05 13:45:27;;;;;;;41.00;18.20;;;0.80;99.90;;;;;;4287454;33;20619;-69
2021/12/05 13:47:54;;;;;;;38.73;18.37;;;0.70;99.90;;;;;;4289561;33;20182;-69
2021/12/05 13:50:26;;;;;;;38.43;18.47;;;0.70;99.90;;;;;;4288825;33;20194;-69
2021/12/05 13:53:02;;;;;;;39.13;19.50;;;0.70;99.90;;;;;;4289192;33;20232;-69
2021/12/05 13:56:06;;;;;;;36.50;17.40;;;0.70;99.90;;;;;;4287273;33;20265;-71
2021/12/05 13:58:40;;;;;;;36.00;18.03;;;0.70;99.90;;;;;;4276773;33;20212;-71
2021/12/05 14:01:21;;;;;;;39.93;19.07;;;0.70;99.90;;;;;;4277859;33;20141;-70
2021/12/05 14:04:08;;;;;;;39.17;19.93;;;0.70;99.90;;;;;;4289051;33;20190;-71
2021/12/05 14:06:49;;;;;;;40.93;19.87;;;0.70;99.90;;;;;;4277339;33;20158;-70
2021/12/05 14:09:18;;;;;;;39.67;19.33;;;0.60;99.90;;;;;;4282079;33;20232;-70
2021/12/05 14:11:45;;;;;;;41.70;20.10;;;0.60;99.90;;;;;;4292421;33;20214;-69
2021/12/05 14:14:14;;;;;;;43.43;21.13;;;0.60;99.90;;;;;;4290470;33;20182;-70
2021/12/05 14:17:02;;;;;;;41.10;20.70;;;0.60;99.90;;;;;;4291054;33;20245;-70
2021/12/05 14:19:32;;;;;;;45.47;22.10;;;0.60;99.90;;;;;;4292134;33;20229;-70
2021/12/05 14:22:04;;;;;;;48.10;23.07;;;0.50;99.90;;;;;;4278719;33;20261;-70
2021/12/05 14:24:35;;;;;;;44.90;22.33;;;0.50;99.90;;;;;;4287828;33;20193;-70
2021/12/05 14:27:09;;;;;;;46.80;22.63;;;0.50;99.90;;;;;;4292985;33;20153;-70
2021/12/05 14:29:48;;;;;;;42.83;22.03;;;0.50;99.90;;;;;;4291036;33;20177;-69
2021/12/05 14:32:20;;;;;;;47.00;22.27;;;0.50;99.90;;;;;;4290677;33;20197;-70
2021/12/05 14:34:56;;;;;;;47.10;23.47;;;0.50;99.90;;;;;;4292021;33;20256;-67
2021/12/05 14:37:25;;;;;;;47.23;22.30;;;0.50;99.90;;;;;;4282205;33;20248;-67
2021/12/05 14:39:59;;;;;;;46.67;23.47;;;0.60;99.90;;;;;;4302500;33;20234;-67
2021/12/05 14:42:30;;;;;;;51.03;23.67;;;0.50;99.90;;;;;;4292663;33;20485;-67
2021/12/05 14:45:00;;;;;;;47.77;22.87;;;0.50;99.90;;;;;;4303598;33;20170;-67
2021/12/05 14:47:33;;;;;;;48.03;22.70;;;0.50;99.90;;;;;;4290245;33;20484;-67
2021/12/05 14:50:09;;;;;;;49.87;23.00;;;0.50;99.90;;;;;;4292860;33;20533;-67
2021/12/05 14:52:39;;;;;;;46.67;23.17;;;0.50;99.90;;;;;;4292420;33;20177;-68
2021/12/05 14:55:10;;;;;;;47.10;22.93;;;0.50;99.90;;;;;;4291447;33;20219;-66
2021/12/05 14:57:59;;;;;;;48.23;23.67;;;0.50;99.90;;;;;;4279686;33;20213;-67
2021/12/05 15:00:31;;;;;;;45.60;22.53;;;0.50;99.90;;;;;;4284262;33;20212;-66
2021/12/05 15:03:13;;;;;;;47.10;23.00;;;0.50;99.90;;;;;;4277185;33;20225;-67
2021/12/05 15:05:45;;;;;;;47.77;23.80;;;0.50;99.90;;;;;;4288750;33;20201;-67
2021/12/05 15:08:15;;;;;;;49.40;23.67;;;0.50;99.90;;;;;;4287985;33;20285;-66
2021/12/05 15:10:44;;;;;;;47.63;22.83;;;0.60;99.90;;;;;;4288741;33;20178;-67
2021/12/05 15:13:12;;;;;;;47.43;22.97;;;0.60;99.90;;;;;;4289245;33;20162;-67
2021/12/05 15:15:40;;;;;;;47.00;22.67;;;0.60;99.90;;;;;;4288547;33;20205;-67
2021/12/05 15:18:17;;;;;;;48.93;22.53;;;0.60;99.90;;;;;;4288312;33;20201;-68
2021/12/05 15:20:46;;;;;;;47.70;23.13;;;0.60;99.90;;;;;;4287259;33;20185;-66
2021/12/05 15:23:14;;;;;;;47.13;22.40;;;0.60;99.90;;;;;;4276890;33;20618;-67
2021/12/05 15:25:43;;;;;;;47.23;22.87;;;0.60;99.90;;;;;;4279341;33;20170;-67
2021/12/05 15:28:13;;;;;;;42.13;21.53;;;0.50;99.90;;;;;;4297584;33;20185;-67
2021/12/05 15:30:43;;;;;;;45.80;23.13;;;0.60;99.90;;;;;;4289481;33;20548;-67
2021/12/05 15:33:14;;;;;;;51.40;23.33;;;0.60;99.90;;;;;;4280234;33;20394;-66
2021/12/05 15:35:43;;;;;;;49.23;23.83;;;0.60;99.90;;;;;;4281723;33;20626;-66
2021/12/05 15:38:21;;;;;;;47.93;23.67;;;0.60;99.90;;;;;;4289574;33;20229;-66
2021/12/05 15:40:51;;;;;;;50.60;24.80;;;0.60;99.90;;;;;;4291242;33;20200;-67
2021/12/05 15:43:21;;;;;;;49.07;23.50;;;0.60;99.90;;;;;;4301935;33;20185;-68
2021/12/05 15:45:51;;;;;;;50.27;25.23;;;0.60;99.90;;;;;;4289190;33;20182;-67
2021/12/05 15:48:26;;;;;;;46.43;24.00;;;0.60;99.90;;;;;;4290203;33;20198;-67
2021/12/05 15:50:55;;;;;;;49.60;24.17;;;0.60;99.90;;;;;;4289443;33;20165;-66
2021/12/05 15:53:24;;;;;;;53.07;25.73;;;0.70;99.90;;;;;;4290468;33;20165;-67
2021/12/05 15:55:59;;;;;;;53.90;25.37;;;0.60;99.90;;;;;;4284846;33;20220;-67
2021/12/05 15:58:47;;;;;;;52.87;24.93;;;0.60;99.90;;;;;;4287956;33;20173;-67
2021/12/05 16:01:18;;;;;;;49.73;24.73;;;0.60;99.90;;;;;;4290026;33;20544;-67
2021/12/05 16:03:50;;;;;;;51.43;24.57;;;0.70;99.90;;;;;;4284190;33;20158;-67
2021/12/05 16:06:20;;;;;;;50.30;24.60;;;0.70;99.90;;;;;;4285184;33;20213;-66
2021/12/05 16:08:49;;;;;;;53.73;25.57;;;0.70;99.90;;;;;;4302618;33;20217;-68
2021/12/05 16:11:19;;;;;;;53.77;26.17;;;0.60;99.90;;;;;;4288667;33;20237;-68
2021/12/05 16:13:51;;;;;;;51.00;25.73;;;0.60;99.90;;;;;;4291782;33;20165;-67
2021/12/05 16:16:21;;;;;;;51.30;25.90;;;0.60;99.90;;;;;;4283720;33;20273;-67
2021/12/05 16:18:52;;;;;;;52.77;25.83;;;0.60;99.90;;;;;;4293266;33;20244;-67
2021/12/05 16:21:31;;;;;;;52.47;26.43;;;0.60;99.90;;;;;;4286801;33;20506;-67
2021/12/05 16:24:15;;;;;;;51.10;26.03;;;0.60;99.90;;;;;;4276081;33;20166;-67
2021/12/05 16:26:45;;;;;;;53.33;26.57;;;0.60;99.90;;;;;;4287402;33;20185;-67
2021/12/05 16:29:18;;;;;;;51.13;26.57;;;0.60;99.90;;;;;;4290354;33;20244;-66
2021/12/05 16:31:53;;;;;;;60.53;26.33;;;0.60;99.90;;;;;;4301543;33;20259;-67
2021/12/05 16:34:27;;;;;;;54.63;26.87;;;0.60;99.90;;;;;;4290453;33;20173;-67
2021/12/05 16:37:06;;;;;;;56.30;26.37;;;0.60;99.90;;;;;;4289986;33;20611;-66
2021/12/05 16:39:51;;;;;;;57.07;26.70;;;0.60;99.90;;;;;;4290102;33;20181;-66
2021/12/05 16:42:21;;;;;;;53.03;25.50;;;0.60;99.90;;;;;;4271604;33;20268;-66
2021/12/05 16:44:54;;;;;;;51.17;26.00;;;0.70;99.90;;;;;;4286652;33;20214;-66
2021/12/05 16:47:24;;;;;;;54.07;26.87;;;0.70;99.90;;;;;;4279356;33;20178;-66
2021/12/05 16:49:57;;;;;;;54.90;27.07;;;0.80;99.90;;;;;;4286033;33;20182;-66
2021/12/05 16:52:39;;;;;;;53.93;26.40;;;0.80;99.90;;;;;;4281317;33;20197;-66
2021/12/05 16:55:21;;;;;;;52.83;26.07;;;0.70;99.90;;;;;;4264967;33;20170;-68
2021/12/05 16:58:17;;;;;;;53.70;26.57;;;0.70;99.90;;;;;;4274443;33;20197;-67
2021/12/05 17:00:51;;;;;;;50.07;24.93;;;0.70;99.90;;;;;;4286574;33;20193;-66
2021/12/05 17:03:26;;;;;;;52.00;25.67;;;0.70;99.90;;;;;;4286645;33;20174;-67
2021/12/05 17:05:59;;;;;;;52.33;26.60;;;0.70;99.90;;;;;;4274559;33;20193;-66
2021/12/05 17:08:28;;;;;;;49.90;26.07;;;0.70;99.90;;;;;;4276120;33;20150;-66
2021/12/05 17:11:00;;;;;;;55.53;26.37;;;0.70;99.90;;;;;;4275971;33;20169;-66
2021/12/05 17:13:34;;;;;;;51.47;24.57;;;0.70;99.90;;;;;;4264390;33;20213;-67
2021/12/05 17:16:09;;;;;;;50.57;25.63;;;0.70;99.90;;;;;;4262384;33;20242;-66
2021/12/05 17:18:44;;;;;;;51.20;24.77;;;0.70;99.90;;;;;;4284338;33;20189;-66
2021/12/05 17:21:36;;;;;;;50.80;25.43;;;0.70;99.90;;;;;;4274514;33;20269;-67
2021/12/05 17:24:13;;;;;;;52.73;25.17;;;0.70;99.90;;;;;;4275624;33;20471;-66
2021/12/05 17:26:44;;;;;;;51.00;24.73;;;0.70;99.90;;;;;;4275082;33;20178;-67
2021/12/05 17:29:17;;;;;;;54.90;25.20;;;0.60;99.90;;;;;;4274569;33;20190;-66
2021/12/05 17:31:50;;;;;;;50.63;25.20;;;0.70;99.90;;;;;;4274855;33;20568;-66
2021/12/05 17:34:23;;;;;;;52.63;25.20;;;0.70;99.90;;;;;;4274359;33;20449;-67
2021/12/05 17:36:57;;;;;;;53.10;25.73;;;0.70;99.90;;;;;;4275201;33;20201;-67
2021/12/05 17:39:31;;;;;;;55.27;25.27;;;0.70;99.90;;;;;;4286347;33;20276;-67
2021/12/05 17:42:06;;;;;;;51.40;25.63;;;0.70;99.90;;;;;;4273523;33;20284;-67
2021/12/05 17:44:34;;;;;;;52.17;25.33;;;0.70;99.90;;;;;;4261315;33;20238;-66
2021/12/05 17:47:05;;;;;;;51.27;25.70;;;0.70;99.90;;;;;;4259779;33;20230;-66
2021/12/05 17:49:35;;;;;;;53.07;25.00;;;0.70;99.90;;;;;;4260192;33;20230;-67
2021/12/05 17:52:05;;;;;;;51.73;24.60;;;0.70;99.90;;;;;;4302943;33;20186;-66
2021/12/05 17:54:53;;;;;;;54.70;25.73;;;0.80;99.90;;;;;;4291334;33;20193;-66
2021/12/05 17:57:33;;;;;;;48.90;25.07;;;0.80;99.90;;;;;;4294206;33;20146;-66
2021/12/05 18:00:13;;;;;;;52.43;24.57;;;0.80;99.90;;;;;;4292581;33;20173;-66
2021/12/05 18:05:15;;;;;;;50.03;24.17;;;0.70;99.90;;;;;;4292100;33;20170;-66
2021/12/05 18:07:43;;;;;;;52.27;24.83;;;0.70;99.90;;;;;;4292366;33;20173;-66
2021/12/05 18:10:13;;;;;;;50.77;24.37;;;0.70;99.90;;;;;;4291958;33;20181;-66
2021/12/05 18:12:43;;;;;;;50.23;25.07;;;0.70;99.90;;;;;;4303894;33;20198;-66
2021/12/05 18:15:22;;;;;;;48.47;24.80;;;0.70;99.90;;;;;;4290893;33;20204;-67
2021/12/05 18:17:50;;;;;;;49.03;24.90;;;0.80;99.90;;;;;;4291243;33;20606;-66
2021/12/05 18:20:25;;;;;;;52.40;25.33;;;0.80;99.90;;;;;;4303670;33;20177;-66
2021/12/05 18:22:57;;;;;;;48.17;23.47;;;0.80;99.90;;;;;;4290818;33;20185;-66
2021/12/05 18:25:26;;;;;;;51.23;24.40;;;0.80;99.90;;;;;;4292304;33;20259;-67
2021/12/05 18:27:53;;;;;;;46.73;24.53;;;0.80;99.90;;;;;;4303282;33;20189;-66
2021/12/05 18:30:23;;;;;;;47.93;24.37;;;0.80;99.90;;;;;;4291119;33;20194;-67
2021/12/05 18:32:56;;;;;;;49.33;24.57;;;0.80;99.90;;;;;;4290485;33;20220;-66
2021/12/05 18:35:30;;;;;;;50.27;24.40;;;0.80;99.90;;;;;;4304267;33;20204;-66
2021/12/05 18:38:01;;;;;;;51.27;23.87;;;0.80;99.90;;;;;;4290964;33;20465;-66
2021/12/05 18:40:28;;;;;;;50.93;24.03;;;0.80;99.90;;;;;;4291412;33;20260;-67
2021/12/05 18:42:57;;;;;;;45.30;23.27;;;0.80;99.90;;;;;;4291784;33;20216;-66
2021/12/05 18:45:29;;;;;;;50.73;24.03;;;0.80;99.90;;;;;;4290845;33;20232;-66
2021/12/05 18:47:58;;;;;;;49.83;24.60;;;0.80;99.90;;;;;;4291169;33;20256;-66
2021/12/05 18:50:32;;;;;;;48.63;24.23;;;0.80;99.90;;;;;;4290642;33;20241;-67